Time;durP1;ratioP1;P1;durP2;ratioP2;P2;SDS_P1;SDS_P2;PMS_P1;PMS_P2;Temp;Humidity;BMP_temperature;BMP_pressure;BME280_temperature;BME280_humidity;BME280_pressure;Samples;Min_cycle;Max_cycle;Signal;HPM_P1;HPM_P2
2021/10/20 00:01:10;0.00;0.00;0.62;0.00;0.00;0.62;1.83;1.07;;;25.30;30.80;;;;;;2245619;61;20809;-61
2021/10/20 00:03:54;0.00;0.00;0.62;0.00;0.00;0.62;2.53;1.10;;;25.30;30.80;;;;;;2246123;61;20717;-61
2021/10/20 00:06:39;0.00;0.00;0.62;0.00;0.00;0.62;1.80;1.10;;;25.30;30.80;;;;;;2245479;61;20385;-62
2021/10/20 00:09:23;0.00;0.00;0.62;0.00;0.00;0.62;2.37;1.03;;;25.30;30.80;;;;;;2245786;61;20397;-61
2021/10/20 00:12:08;0.00;0.00;0.62;0.00;0.00;0.62;1.60;1.00;;;25.30;30.80;;;;;;2245475;61;20369;-60
2021/10/20 00:14:54;0.00;0.00;0.62;0.00;0.00;0.62;1.93;1.20;;;25.30;30.80;;;;;;2245898;61;20369;-61
2021/10/20 00:17:38;0.00;0.00;0.62;0.00;0.00;0.62;1.70;1.17;;;25.30;30.80;;;;;;2245856;61;20441;-60
2021/10/20 00:20:26;0.00;0.00;0.62;0.00;0.00;0.62;1.53;1.00;;;25.30;30.80;;;;;;2245645;61;20365;-61
2021/10/20 00:23:12;0.00;0.00;0.62;0.00;0.00;0.62;1.60;1.03;;;25.30;30.80;;;;;;2245623;61;20362;-60
2021/10/20 00:25:56;0.00;0.00;0.62;0.00;0.00;0.62;1.77;1.17;;;25.30;30.80;;;;;;2245845;61;20402;-62
2021/10/20 00:28:41;0.00;0.00;0.62;0.00;0.00;0.62;1.60;0.90;;;25.30;30.80;;;;;;2245520;61;20502;-61
2021/10/20 00:31:27;0.00;0.00;0.62;0.00;0.00;0.62;1.60;1.20;;;25.30;30.80;;;;;;2245542;61;20765;-60
2021/10/20 00:34:12;0.00;0.00;0.62;0.00;0.00;0.62;1.50;1.20;;;25.30;30.80;;;;;;2245802;61;20437;-60
2021/10/20 00:36:56;0.00;0.00;0.62;0.00;0.00;0.62;2.20;1.90;;;25.30;30.80;;;;;;2245616;61;20659;-59
2021/10/20 00:39:41;0.00;0.00;0.62;0.00;0.00;0.62;3.20;2.57;;;25.30;30.80;;;;;;2245785;61;20429;-57
2021/10/20 00:42:25;0.00;0.00;0.62;0.00;0.00;0.62;2.67;2.23;;;25.30;30.90;;;;;;2244878;61;20369;-56
2021/10/20 00:45:10;0.00;0.00;0.62;0.00;0.00;0.62;3.70;2.67;;;25.30;30.90;;;;;;2245385;61;20389;-57
2021/10/20 00:47:56;0.00;0.00;0.62;0.00;0.00;0.62;2.50;2.30;;;25.30;31.00;;;;;;2245557;61;20745;-60
2021/10/20 00:50:42;0.00;0.00;0.62;0.00;0.00;0.62;3.27;2.70;;;25.30;31.00;;;;;;2245599;61;20579;-59
2021/10/20 00:53:26;0.00;0.00;0.62;0.00;0.00;0.62;2.77;2.30;;;25.30;31.00;;;;;;2245520;61;20370;-58
2021/10/20 00:56:11;0.00;0.00;0.62;0.00;0.00;0.62;2.50;2.23;;;25.30;31.00;;;;;;2245537;61;20389;-57
2021/10/20 00:58:56;0.00;0.00;0.62;0.00;0.00;0.62;3.23;2.93;;;25.30;31.00;;;;;;2245552;61;20470;-58
2021/10/20 01:01:41;0.00;0.00;0.62;0.00;0.00;0.62;3.50;2.70;;;25.30;31.00;;;;;;2245686;61;20737;-57
2021/10/20 01:04:27;0.00;0.00;0.62;0.00;0.00;0.62;3.70;3.17;;;25.30;31.10;;;;;;2245228;61;20380;-59
2021/10/20 01:07:12;0.00;0.00;0.62;0.00;0.00;0.62;3.13;2.83;;;25.30;31.10;;;;;;2245232;61;20449;-58
2021/10/20 01:09:56;0.00;0.00;0.62;0.00;0.00;0.62;3.90;3.10;;;25.30;31.10;;;;;;2245660;61;20388;-58
2021/10/20 01:12:41;0.00;0.00;0.62;0.00;0.00;0.62;3.43;2.97;;;25.30;31.20;;;;;;2245487;61;20482;-61
2021/10/20 01:15:28;0.00;0.00;0.62;0.00;0.00;0.62;4.07;3.30;;;25.20;31.20;;;;;;2245437;61;20596;-60
2021/10/20 01:18:12;0.00;0.00;0.62;0.00;0.00;0.62;6.33;3.77;;;25.20;31.20;;;;;;2245554;61;20510;-59
2021/10/20 01:21:00;0.00;0.00;0.62;0.00;0.00;0.62;3.60;3.10;;;25.20;31.20;;;;;;2245469;61;20362;-59
2021/10/20 01:23:47;0.00;0.00;0.62;0.00;0.00;0.62;3.47;3.17;;;25.20;31.30;;;;;;2245668;61;20831;-59
2021/10/20 01:26:32;0.00;0.00;0.62;0.00;0.00;0.62;3.83;3.47;;;25.20;31.30;;;;;;2245034;61;20377;-59
2021/10/20 01:29:17;0.00;0.00;0.62;0.00;0.00;0.62;4.17;3.33;;;25.20;31.30;;;;;;2245356;61;20631;-60
2021/10/20 01:32:07;0.00;0.00;0.62;0.00;0.00;0.62;4.53;3.43;;;25.20;31.30;;;;;;2245634;61;20400;-60
2021/10/20 01:34:52;0.00;0.00;0.62;0.00;0.00;0.62;4.03;3.63;;;25.20;31.50;;;;;;2245384;61;20409;-60
2021/10/20 01:37:38;0.00;0.00;0.62;0.00;0.00;0.62;4.20;3.57;;;25.20;31.40;;;;;;2245234;61;20611;-61
2021/10/20 01:40:24;0.00;0.00;0.62;0.00;0.00;0.62;3.80;3.50;;;25.10;31.40;;;;;;2245627;61;20634;-57
2021/10/20 01:43:09;0.00;0.00;0.62;0.00;0.00;0.62;4.00;3.70;;;25.10;31.40;;;;;;2245222;61;20373;-59
2021/10/20 01:45:54;0.00;0.00;0.62;0.00;0.00;0.62;3.67;3.37;;;25.10;31.40;;;;;;2245621;61;20366;-60
2021/10/20 01:48:38;0.00;0.00;0.62;0.00;0.00;0.62;4.10;3.70;;;25.10;31.50;;;;;;2244958;61;20386;-57
2021/10/20 01:51:22;0.00;0.00;0.62;0.00;0.00;0.62;3.90;3.53;;;25.10;31.50;;;;;;2245745;61;20361;-59
2021/10/20 01:54:08;0.00;0.00;0.62;0.00;0.00;0.62;3.80;3.50;;;25.10;31.60;;;;;;2246396;61;20365;-59
2021/10/20 01:56:54;0.00;0.00;0.62;0.00;0.00;0.62;4.77;3.50;;;25.10;31.70;;;;;;2245775;61;20364;-60
2021/10/20 01:59:39;0.00;0.00;0.62;0.00;0.00;0.62;4.97;4.47;;;25.10;31.70;;;;;;2246120;61;20473;-60
2021/10/20 02:02:23;0.00;0.00;0.62;0.00;0.00;0.62;4.23;3.80;;;25.10;31.80;;;;;;2246285;61;20361;-55
2021/10/20 02:05:09;0.00;0.00;0.62;0.00;0.00;0.62;4.20;3.80;;;25.10;31.90;;;;;;2246086;61;20356;-57
2021/10/20 02:07:54;0.00;0.00;0.62;0.00;0.00;0.62;4.63;3.60;;;25.00;31.80;;;;;;2245987;61;20361;-59
2021/10/20 02:10:38;0.00;0.00;0.62;0.00;0.00;0.62;4.53;3.93;;;25.00;31.80;;;;;;2245729;61;20717;-60
2021/10/20 02:13:25;0.00;0.00;0.62;0.00;0.00;0.62;4.27;3.87;;;25.00;31.80;;;;;;2246128;61;20766;-57
2021/10/20 02:16:10;0.00;0.00;0.62;0.00;0.00;0.62;4.57;4.17;;;25.00;31.90;;;;;;2246436;61;20385;-60
2021/10/20 02:18:55;0.00;0.00;0.62;0.00;0.00;0.62;3.77;3.43;;;25.00;32.00;;;;;;2245940;61;20397;-60
2021/10/20 02:21:40;0.00;0.00;0.62;0.00;0.00;0.62;4.23;3.57;;;25.00;32.00;;;;;;2245854;61;20400;-59
2021/10/20 02:24:24;0.00;0.00;0.62;0.00;0.00;0.62;5.97;3.83;;;24.90;31.90;;;;;;2246221;61;20441;-59
2021/10/20 02:27:09;0.00;0.00;0.62;0.00;0.00;0.62;4.80;4.40;;;24.90;31.90;;;;;;2245776;61;20702;-59
2021/10/20 02:29:55;0.00;0.00;0.62;0.00;0.00;0.62;3.90;3.57;;;24.90;31.90;;;;;;2245926;61;20606;-59
2021/10/20 02:32:39;0.00;0.00;0.62;0.00;0.00;0.62;4.20;3.80;;;24.90;32.00;;;;;;2246263;61;20365;-59
2021/10/20 02:35:24;0.00;0.00;0.62;0.00;0.00;0.62;4.60;4.20;;;24.90;32.00;;;;;;2246057;61;20393;-58
2021/10/20 02:38:09;0.00;0.00;0.62;0.00;0.00;0.62;5.27;4.13;;;24.90;32.10;;;;;;2246110;61;20715;-60
2021/10/20 02:40:53;0.00;0.00;0.62;0.00;0.00;0.62;5.53;3.93;;;24.80;32.00;;;;;;2245759;61;20361;-60
2021/10/20 02:43:39;0.00;0.00;0.62;0.00;0.00;0.62;4.50;4.10;;;24.80;32.00;;;;;;2245861;61;20694;-56
2021/10/20 02:46:25;0.00;0.00;0.62;0.00;0.00;0.62;4.77;4.27;;;24.80;32.00;;;;;;2246020;61;20402;-59
2021/10/20 02:49:10;0.00;0.00;0.62;0.00;0.00;0.62;4.80;4.40;;;24.80;32.10;;;;;;2245887;61;20385;-58
2021/10/20 02:51:54;0.00;0.00;0.62;0.00;0.00;0.62;4.80;4.40;;;24.80;32.10;;;;;;2246016;61;20382;-60
2021/10/20 02:54:38;0.00;0.00;0.62;0.00;0.00;0.62;6.60;5.00;;;24.70;32.10;;;;;;2246153;61;20365;-61
2021/10/20 02:57:23;0.00;0.00;0.62;0.00;0.00;0.62;5.13;4.27;;;24.70;32.10;;;;;;2245897;61;20393;-59
2021/10/20 03:00:09;0.00;0.00;0.62;0.00;0.00;0.62;4.37;3.97;;;24.70;32.10;;;;;;2245990;61;20365;-57
2021/10/20 03:02:55;0.00;0.00;0.62;0.00;0.00;0.62;4.67;4.27;;;24.70;32.20;;;;;;2245623;61;20369;-60
2021/10/20 03:05:39;0.00;0.00;0.62;0.00;0.00;0.62;4.80;4.30;;;24.70;32.10;;;;;;2245817;61;20369;-59
2021/10/20 03:08:24;0.00;0.00;0.62;0.00;0.00;0.62;4.13;3.73;;;24.60;32.10;;;;;;2245826;61;20606;-58
2021/10/20 03:11:08;0.00;0.00;0.62;0.00;0.00;0.62;4.20;3.80;;;24.60;32.10;;;;;;2245842;61;20366;-60
2021/10/20 03:13:54;0.00;0.00;0.62;0.00;0.00;0.62;4.67;4.00;;;24.60;32.10;;;;;;2245762;61;20614;-57
2021/10/20 03:16:40;0.00;0.00;0.62;0.00;0.00;0.62;4.57;4.17;;;24.60;32.20;;;;;;2245992;61;20374;-58
2021/10/20 03:19:26;0.00;0.00;0.62;0.00;0.00;0.62;4.40;4.00;;;24.60;32.20;;;;;;2245435;61;20404;-57
2021/10/20 03:22:11;0.00;0.00;0.62;0.00;0.00;0.62;4.57;4.17;;;24.60;32.20;;;;;;2245840;61;20369;-60
2021/10/20 03:24:55;0.00;0.00;0.62;0.00;0.00;0.62;4.60;4.10;;;24.60;32.30;;;;;;2245556;61;20369;-60
2021/10/20 03:27:42;0.00;0.00;0.62;0.00;0.00;0.62;4.30;3.93;;;24.60;32.40;;;;;;2245534;61;20389;-59
2021/10/20 03:30:27;0.00;0.00;0.62;0.00;0.00;0.62;4.90;4.10;;;24.60;32.40;;;;;;2245936;61;20369;-57
2021/10/20 03:33:11;0.00;0.00;0.62;0.00;0.00;0.62;4.00;3.60;;;24.60;32.40;;;;;;2245767;61;20641;-59
2021/10/20 03:35:57;0.00;0.00;0.62;0.00;0.00;0.62;3.77;3.47;;;24.50;32.30;;;;;;2245567;61;20617;-58
2021/10/20 03:38:42;0.00;0.00;0.62;0.00;0.00;0.62;6.10;3.60;;;24.50;32.30;;;;;;2245714;61;20392;-60
2021/10/20 03:41:26;0.00;0.00;0.62;0.00;0.00;0.62;5.30;3.93;;;24.50;32.40;;;;;;2245840;61;20463;-58
2021/10/20 03:44:11;0.00;0.00;0.62;0.00;0.00;0.62;5.43;4.43;;;24.50;32.40;;;;;;2245896;61;20377;-59
2021/10/20 03:46:55;0.00;0.00;0.62;0.00;0.00;0.62;5.40;4.00;;;24.50;32.40;;;;;;2245220;61;20397;-60
2021/10/20 03:49:40;0.00;0.00;0.62;0.00;0.00;0.62;6.10;4.47;;;24.50;32.40;;;;;;2245697;61;20376;-59
2021/10/20 03:52:26;0.00;0.00;0.62;0.00;0.00;0.62;4.50;4.10;;;24.50;32.40;;;;;;2246179;61;20421;-60
2021/10/20 03:55:11;0.00;0.00;0.62;0.00;0.00;0.62;6.50;4.07;;;24.50;32.40;;;;;;2245672;61;20691;-59
2021/10/20 03:57:55;0.00;0.00;0.62;0.00;0.00;0.62;5.77;3.70;;;24.50;32.40;;;;;;2245370;61;20393;-61
2021/10/20 04:00:40;0.00;0.00;0.62;0.00;0.00;0.62;4.87;3.63;;;24.50;32.50;;;;;;2245904;61;20450;-60
2021/10/20 04:03:25;0.00;0.00;0.62;0.00;0.00;0.62;4.40;3.80;;;24.50;32.50;;;;;;2245702;61;20365;-58
2021/10/20 04:06:09;0.00;0.00;0.62;0.00;0.00;0.62;4.50;3.77;;;24.50;32.50;;;;;;2245704;61;20598;-57
2021/10/20 04:08:55;0.00;0.00;0.62;0.00;0.00;0.62;6.53;4.90;;;24.50;32.50;;;;;;2245817;61;20738;-58
2021/10/20 04:11:40;0.00;0.00;0.62;0.00;0.00;0.62;4.73;3.77;;;24.50;32.50;;;;;;2245880;61;20381;-59
2021/10/20 04:14:24;0.00;0.00;0.62;0.00;0.00;0.62;4.67;4.27;;;24.50;32.50;;;;;;2245976;61;20362;-58
2021/10/20 04:17:08;0.00;0.00;0.62;0.00;0.00;0.62;3.67;3.37;;;24.50;32.50;;;;;;2245425;61;20360;-58
2021/10/20 04:19:53;0.00;0.00;0.62;0.00;0.00;0.62;3.90;3.50;;;24.50;32.50;;;;;;2245377;61;20640;-58
2021/10/20 04:22:38;0.00;0.00;0.62;0.00;0.00;0.62;4.83;4.33;;;24.50;32.50;;;;;;2245823;61;20649;-59
2021/10/20 04:25:25;0.00;0.00;0.62;0.00;0.00;0.62;5.17;4.20;;;24.50;32.50;;;;;;2245548;61;20365;-59
2021/10/20 04:28:10;0.00;0.00;0.62;0.00;0.00;0.62;5.90;4.60;;;24.50;32.50;;;;;;2245408;61;20397;-56
2021/10/20 04:30:55;0.00;0.00;0.62;0.00;0.00;0.62;4.50;4.07;;;24.50;32.50;;;;;;2245849;61;20365;-57
2021/10/20 04:33:39;0.00;0.00;0.62;0.00;0.00;0.62;6.70;4.90;;;24.50;32.50;;;;;;2245805;61;20418;-59
2021/10/20 04:36:24;0.00;0.00;0.62;0.00;0.00;0.62;4.30;3.90;;;24.50;32.50;;;;;;2245713;61;20362;-57
2021/10/20 04:39:09;0.00;0.00;0.62;0.00;0.00;0.62;7.00;3.83;;;24.50;32.50;;;;;;2245196;61;20429;-57
2021/10/20 04:41:55;0.00;0.00;0.62;0.00;0.00;0.62;4.10;3.70;;;24.50;32.50;;;;;;2245374;61;20742;-58
2021/10/20 04:44:39;0.00;0.00;0.62;0.00;0.00;0.62;4.67;4.07;;;24.50;32.40;;;;;;2245851;61;20373;-59
2021/10/20 04:47:24;0.00;0.00;0.62;0.00;0.00;0.62;3.97;3.57;;;24.50;32.40;;;;;;2245238;61;20423;-60
2021/10/20 04:50:10;0.00;0.00;0.62;0.00;0.00;0.62;4.83;3.77;;;24.50;32.30;;;;;;2245524;61;20385;-59
2021/10/20 04:52:54;0.00;0.00;0.62;0.00;0.00;0.62;3.67;3.37;;;24.50;32.40;;;;;;2245857;61;20594;-59
2021/10/20 04:55:39;0.00;0.00;0.62;0.00;0.00;0.62;4.10;3.57;;;24.50;32.40;;;;;;2245227;61;20405;-59
2021/10/20 04:58:24;0.00;0.00;0.62;0.00;0.00;0.62;4.00;3.53;;;24.50;32.40;;;;;;2245561;61;20386;-58
2021/10/20 05:01:09;0.00;0.00;0.62;0.00;0.00;0.62;3.50;3.20;;;24.50;32.30;;;;;;2245203;61;20497;-59
2021/10/20 05:03:53;0.00;0.00;0.62;0.00;0.00;0.62;4.60;3.70;;;24.50;32.30;;;;;;2245469;61;20413;-59
2021/10/20 05:06:38;0.00;0.00;0.62;0.00;0.00;0.62;6.87;3.70;;;24.50;32.30;;;;;;2245679;61;20381;-59
2021/10/20 05:09:22;0.00;0.00;0.62;0.00;0.00;0.62;4.37;3.97;;;24.50;32.30;;;;;;2245344;61;20382;-58
2021/10/20 05:12:07;0.00;0.00;0.62;0.00;0.00;0.62;4.60;3.67;;;24.50;32.30;;;;;;2245439;61;20435;-58
2021/10/20 05:14:53;0.00;0.00;0.62;0.00;0.00;0.62;4.70;3.80;;;24.50;32.30;;;;;;2245644;61;20365;-59
2021/10/20 05:17:38;0.00;0.00;0.62;0.00;0.00;0.62;4.77;4.13;;;24.50;32.30;;;;;;2245371;61;20725;-58
2021/10/20 05:20:23;0.00;0.00;0.62;0.00;0.00;0.62;4.67;3.67;;;24.50;32.20;;;;;;2245671;61;20433;-61
2021/10/20 05:23:10;0.00;0.00;0.62;0.00;0.00;0.62;4.10;3.73;;;24.50;32.20;;;;;;2245034;61;20392;-58
2021/10/20 05:25:55;0.00;0.00;0.62;0.00;0.00;0.62;4.47;3.90;;;24.50;32.20;;;;;;2245180;61;20369;-55
2021/10/20 05:28:39;0.00;0.00;0.62;0.00;0.00;0.62;4.53;4.13;;;24.50;32.20;;;;;;2245685;61;20591;-58
2021/10/20 05:31:25;0.00;0.00;0.62;0.00;0.00;0.62;4.10;3.70;;;24.50;32.20;;;;;;2245355;61;20361;-58
2021/10/20 05:34:10;0.00;0.00;0.62;0.00;0.00;0.62;4.20;3.80;;;24.50;32.20;;;;;;2245376;61;20693;-58
2021/10/20 05:36:55;0.00;0.00;0.62;0.00;0.00;0.62;4.40;4.00;;;24.40;32.10;;;;;;2245357;61;20377;-60
2021/10/20 05:39:39;0.00;0.00;0.62;0.00;0.00;0.62;4.73;3.93;;;24.40;32.10;;;;;;2245341;61;20401;-58
2021/10/20 05:42:23;0.00;0.00;0.62;0.00;0.00;0.62;4.50;3.70;;;24.40;32.10;;;;;;2245480;61;20373;-56
2021/10/20 05:45:09;0.00;0.00;0.62;0.00;0.00;0.62;4.53;4.13;;;24.30;32.00;;;;;;2245272;61;20361;-57
2021/10/20 05:47:56;0.00;0.00;0.62;0.00;0.00;0.62;3.77;3.40;;;24.30;32.00;;;;;;2245494;61;20369;-58
2021/10/20 05:50:41;0.00;0.00;0.62;0.00;0.00;0.62;4.73;3.87;;;24.30;32.00;;;;;;2245743;61;20445;-59
2021/10/20 05:53:25;0.00;0.00;0.62;0.00;0.00;0.62;6.07;4.00;;;24.30;32.00;;;;;;2245414;61;20369;-60
2021/10/20 05:56:10;0.00;0.00;0.62;0.00;0.00;0.62;5.70;3.80;;;24.30;32.10;;;;;;2245187;61;20360;-58
2021/10/20 05:58:54;0.00;0.00;0.62;0.00;0.00;0.62;4.77;4.23;;;24.30;32.10;;;;;;2245389;61;20400;-59
2021/10/20 06:01:39;0.00;0.00;0.62;0.00;0.00;0.62;6.60;4.67;;;24.20;32.00;;;;;;2245396;61;20493;-58
2021/10/20 06:04:24;0.00;0.00;0.62;0.00;0.00;0.62;4.40;3.97;;;24.20;32.00;;;;;;2245217;61;20369;-57
2021/10/20 06:07:09;0.00;0.00;0.62;0.00;0.00;0.62;9.00;4.43;;;24.20;32.00;;;;;;2245422;61;20364;-58
2021/10/20 06:09:54;0.00;0.00;0.62;0.00;0.00;0.62;5.03;3.83;;;24.20;32.00;;;;;;2245635;61;20381;-60
2021/10/20 06:12:39;0.00;0.00;0.62;0.00;0.00;0.62;4.70;4.20;;;24.20;32.00;;;;;;2245494;61;20369;-57
2021/10/20 06:15:24;0.00;0.00;0.62;0.00;0.00;0.62;5.27;4.53;;;24.10;32.00;;;;;;2245116;61;20434;-58
2021/10/20 06:18:09;0.00;0.00;0.62;0.00;0.00;0.62;5.20;4.70;;;24.10;32.00;;;;;;2245154;61;20790;-58
2021/10/20 06:20:55;0.00;0.00;0.62;0.00;0.00;0.62;6.80;5.03;;;24.10;32.00;;;;;;2245500;61;20366;-60
2021/10/20 06:23:40;0.00;0.00;0.62;0.00;0.00;0.62;5.07;4.27;;;24.10;32.00;;;;;;2245356;61;20367;-56
2021/10/20 06:26:24;0.00;0.00;0.62;0.00;0.00;0.62;7.87;5.10;;;24.10;32.00;;;;;;2244995;61;20741;-60
2021/10/20 06:29:09;0.00;0.00;0.62;0.00;0.00;0.62;6.40;5.00;;;24.10;32.00;;;;;;2245573;61;20380;-54
2021/10/20 06:31:54;0.00;0.00;0.62;0.00;0.00;0.62;9.03;5.20;;;24.10;32.10;;;;;;2245274;61;20405;-61
2021/10/20 06:34:39;0.00;0.00;0.62;0.00;0.00;0.62;5.90;4.93;;;24.10;32.00;;;;;;2245321;61;20362;-59
2021/10/20 06:37:26;0.00;0.00;0.62;0.00;0.00;0.62;7.60;5.43;;;24.00;32.00;;;;;;2245336;61;20365;-60
2021/10/20 06:40:11;0.00;0.00;0.62;0.00;0.00;0.62;6.23;5.40;;;24.00;32.10;;;;;;2245712;61;20413;-60
2021/10/20 06:42:56;0.00;0.00;0.62;0.00;0.00;0.62;6.47;5.30;;;24.00;32.10;;;;;;2246116;61;20393;-61
2021/10/20 06:45:42;0.00;0.00;0.62;0.00;0.00;0.62;7.03;5.73;;;24.00;32.10;;;;;;2245671;61;20402;-60
2021/10/20 06:48:26;0.00;0.00;0.62;0.00;0.00;0.62;6.13;5.10;;;24.00;32.10;;;;;;2245552;61;20459;-61
2021/10/20 06:51:11;0.00;0.00;0.62;0.00;0.00;0.62;6.90;6.13;;;24.00;32.20;;;;;;2246255;61;20409;-61
2021/10/20 06:53:58;0.00;0.00;0.62;0.00;0.00;0.62;6.57;5.87;;;24.00;32.20;;;;;;2245819;61;20378;-60
2021/10/20 06:56:42;0.00;0.00;0.62;0.00;0.00;0.62;6.20;5.43;;;24.00;32.30;;;;;;2245801;61;20486;-60
2021/10/20 06:59:27;0.00;0.00;0.62;0.00;0.00;0.62;6.07;5.47;;;24.00;32.30;;;;;;2245505;61;20461;-59
2021/10/20 07:02:11;0.00;0.00;0.62;0.00;0.00;0.62;5.13;4.50;;;24.00;32.30;;;;;;2245080;61;20576;-60
2021/10/20 07:04:56;0.00;0.00;0.62;0.00;0.00;0.62;5.13;4.30;;;24.00;32.30;;;;;;2246088;61;20457;-60
2021/10/20 07:07:41;0.00;0.00;0.62;0.00;0.00;0.62;5.43;4.70;;;24.00;32.30;;;;;;2245695;61;20802;-60
2021/10/20 07:10:27;0.00;0.00;0.62;0.00;0.00;0.62;5.30;4.80;;;24.00;32.40;;;;;;2245757;61;20722;-61
2021/10/20 07:13:11;0.00;0.00;0.62;0.00;0.00;0.62;4.83;4.23;;;24.00;32.30;;;;;;2246092;61;20362;-58
2021/10/20 07:15:58;0.00;0.00;0.62;0.00;0.00;0.62;5.80;4.17;;;24.00;32.30;;;;;;2245716;61;20409;-60
2021/10/20 07:18:43;0.00;0.00;0.62;0.00;0.00;0.62;5.60;4.53;;;24.00;32.40;;;;;;2242722;61;20433;-59
2021/10/20 07:21:28;0.00;0.00;0.62;0.00;0.00;0.62;4.57;4.17;;;24.00;32.40;;;;;;2245513;61;20370;-56
2021/10/20 07:24:12;0.00;0.00;0.62;0.00;0.00;0.62;5.37;4.87;;;24.00;32.40;;;;;;2245916;61;20361;-60
2021/10/20 07:26:58;0.00;0.00;0.62;0.00;0.00;0.62;5.00;4.50;;;24.00;32.30;;;;;;2246062;61;20370;-61
2021/10/20 07:29:46;0.00;0.00;0.62;0.00;0.00;0.62;5.00;4.50;;;24.00;32.30;;;;;;2245756;61;20666;-61
2021/10/20 07:32:31;0.00;0.00;0.62;0.00;0.00;0.62;5.90;4.77;;;24.00;32.20;;;;;;2245776;61;20393;-61
2021/10/20 07:35:16;0.00;0.00;0.62;0.00;0.00;0.62;6.17;5.23;;;24.00;32.30;;;;;;2245374;61;20378;-60
2021/10/20 07:38:01;0.00;0.00;0.62;0.00;0.00;0.62;4.60;4.20;;;24.00;32.30;;;;;;2245315;61;20385;-61
2021/10/20 07:40:46;0.00;0.00;0.62;0.00;0.00;0.62;6.33;5.10;;;23.90;32.20;;;;;;2245652;61;20361;-61
2021/10/20 07:43:33;0.00;0.00;0.62;0.00;0.00;0.62;4.37;3.97;;;24.00;32.40;;;;;;2245660;61;20357;-61
2021/10/20 07:46:17;0.00;0.00;0.62;0.00;0.00;0.62;4.50;3.97;;;23.90;32.30;;;;;;2245977;61;20488;-61
2021/10/20 07:49:04;0.00;0.00;0.62;0.00;0.00;0.62;6.43;4.73;;;23.90;32.30;;;;;;2245912;61;20378;-61
2021/10/20 07:51:51;0.00;0.00;0.62;0.00;0.00;0.62;8.90;4.40;;;24.00;32.40;;;;;;2245674;61;20365;-58
2021/10/20 07:54:38;0.00;0.00;0.62;0.00;0.00;0.62;4.87;4.07;;;24.00;32.40;;;;;;2245947;61;20430;-58
2021/10/20 07:57:23;0.00;0.00;0.62;0.00;0.00;0.62;5.30;4.80;;;24.00;32.40;;;;;;2245763;61;20437;-57
2021/10/20 08:00:11;0.00;0.00;0.62;0.00;0.00;0.62;6.83;4.80;;;24.00;32.40;;;;;;2245608;61;20428;-58
2021/10/20 08:02:56;0.00;0.00;0.62;0.00;0.00;0.62;5.63;5.13;;;24.00;32.30;;;;;;2245702;61;20742;-60
2021/10/20 08:05:40;0.00;0.00;0.62;0.00;0.00;0.62;5.47;4.40;;;24.00;32.30;;;;;;2245865;61;20365;-58
2021/10/20 08:08:25;0.00;0.00;0.62;0.00;0.00;0.62;5.30;4.60;;;24.00;32.20;;;;;;2245847;61;20441;-61
2021/10/20 08:11:09;0.00;0.00;0.62;0.00;0.00;0.62;6.20;4.90;;;24.00;32.20;;;;;;2246007;61;20412;-60
2021/10/20 08:13:54;0.00;0.00;0.62;0.00;0.00;0.62;6.67;5.00;;;24.00;32.20;;;;;;2244880;61;20730;-60
2021/10/20 08:16:40;0.00;0.00;0.62;0.00;0.00;0.62;5.43;4.70;;;23.90;32.20;;;;;;2245369;61;20369;-60
2021/10/20 08:19:25;0.00;0.00;0.62;0.00;0.00;0.62;7.13;4.93;;;23.90;32.20;;;;;;2245765;61;20498;-60
2021/10/20 08:22:09;0.00;0.00;0.62;0.00;0.00;0.62;6.30;4.57;;;23.90;32.30;;;;;;2245564;61;20421;-60
2021/10/20 08:24:54;0.00;0.00;0.62;0.00;0.00;0.62;5.30;4.80;;;23.90;32.40;;;;;;2245594;61;20361;-61
2021/10/20 08:27:39;0.00;0.00;0.62;0.00;0.00;0.62;5.70;4.80;;;23.90;32.40;;;;;;2245628;61;20369;-60
2021/10/20 08:30:24;0.00;0.00;0.62;0.00;0.00;0.62;6.00;5.33;;;24.00;32.50;;;;;;2245788;61;20435;-60
2021/10/20 08:33:10;0.00;0.00;0.62;0.00;0.00;0.62;6.07;4.77;;;24.00;32.50;;;;;;2245782;61;20358;-60
2021/10/20 08:35:54;0.00;0.00;0.62;0.00;0.00;0.62;4.50;4.10;;;24.00;32.50;;;;;;2245275;61;20594;-60
2021/10/20 08:38:39;0.00;0.00;0.62;0.00;0.00;0.62;6.27;4.83;;;24.00;32.40;;;;;;2245223;61;20398;-61
2021/10/20 08:41:24;0.00;0.00;0.62;0.00;0.00;0.62;5.00;4.57;;;24.10;32.50;;;;;;2245733;61;20362;-60
2021/10/20 08:44:10;0.00;0.00;0.62;0.00;0.00;0.62;5.60;4.70;;;24.10;32.40;;;;;;2245663;61;20369;-64
2021/10/20 08:46:55;0.00;0.00;0.62;0.00;0.00;0.62;6.27;5.10;;;24.10;32.40;;;;;;2245246;61;20413;-59
2021/10/20 08:49:43;0.00;0.00;0.62;0.00;0.00;0.62;4.57;4.07;;;24.10;32.40;;;;;;2245727;61;20393;-59
2021/10/20 08:52:28;0.00;0.00;0.62;0.00;0.00;0.62;5.70;4.97;;;24.10;32.30;;;;;;2245438;61;20725;-58
2021/10/20 08:55:14;0.00;0.00;0.62;0.00;0.00;0.62;5.53;4.47;;;24.10;32.30;;;;;;2245612;61;20365;-60
2021/10/20 08:58:00;0.00;0.00;0.62;0.00;0.00;0.62;5.00;3.73;;;24.10;32.30;;;;;;2245191;61;20432;-60
2021/10/20 09:00:45;0.00;0.00;0.62;0.00;0.00;0.62;4.50;4.10;;;24.10;32.30;;;;;;2245408;61;20641;-62
2021/10/20 09:03:30;0.00;0.00;0.62;0.00;0.00;0.62;4.60;4.20;;;24.10;32.40;;;;;;2245516;61;20402;-59
2021/10/20 09:06:16;0.00;0.00;0.62;0.00;0.00;0.62;4.17;3.77;;;24.20;32.50;;;;;;2245318;61;20366;-59
2021/10/20 09:09:04;0.00;0.00;0.62;0.00;0.00;0.62;4.70;4.23;;;24.20;32.50;;;;;;2245513;61;20385;-60
2021/10/20 09:11:48;0.00;0.00;0.62;0.00;0.00;0.62;5.30;4.80;;;24.20;32.50;;;;;;2245394;61;20385;-58
2021/10/20 09:14:33;0.00;0.00;0.62;0.00;0.00;0.62;3.90;3.50;;;24.20;32.50;;;;;;2244937;61;20382;-58
2021/10/20 09:17:18;0.00;0.00;0.62;0.00;0.00;0.62;4.87;4.40;;;24.30;32.60;;;;;;2245474;61;20369;-59
2021/10/20 09:20:15;0.00;0.00;0.62;0.00;0.00;0.62;4.43;3.97;;;24.30;32.60;;;;;;2245051;61;20428;-60
2021/10/20 09:23:06;0.00;0.00;0.62;0.00;0.00;0.62;3.93;3.43;;;24.30;32.50;;;;;;2245362;61;20381;-59
2021/10/20 09:25:57;0.00;0.00;0.62;0.00;0.00;0.62;4.37;3.97;;;24.30;32.50;;;;;;2245630;61;20714;-61
2021/10/20 09:28:42;0.00;0.00;0.62;0.00;0.00;0.62;3.80;3.50;;;24.40;32.60;;;;;;2245182;61;20381;-58
2021/10/20 09:31:26;0.00;0.00;0.62;0.00;0.00;0.62;3.87;3.47;;;24.40;32.60;;;;;;2245403;61;20417;-57
2021/10/20 09:34:11;0.00;0.00;0.62;0.00;0.00;0.62;4.30;3.90;;;24.40;32.50;;;;;;2245701;61;20578;-60
2021/10/20 09:36:59;0.00;0.00;0.62;0.00;0.00;0.62;5.17;3.37;;;24.50;32.60;;;;;;2245109;61;20953;-60
2021/10/20 09:39:45;0.00;0.00;0.62;0.00;0.00;0.62;4.50;3.60;;;24.50;33.20;;;;;;2245517;61;20397;-57
2021/10/20 09:42:41;0.00;0.00;0.62;0.00;0.00;0.62;3.60;3.20;;;24.50;32.50;;;;;;2244907;61;20373;-60
2021/10/20 09:45:26;0.00;0.00;0.62;0.00;0.00;0.62;5.33;3.17;;;24.50;32.50;;;;;;2245270;61;20578;-57
2021/10/20 09:48:17;0.00;0.00;0.62;0.00;0.00;0.62;4.00;3.70;;;24.60;32.50;;;;;;2245520;61;20415;-61
2021/10/20 09:51:07;0.00;0.00;0.62;0.00;0.00;0.62;3.43;3.13;;;24.60;32.50;;;;;;2245467;61;20429;-60
2021/10/20 09:53:52;0.00;0.00;0.62;0.00;0.00;0.62;3.90;3.03;;;24.60;32.40;;;;;;2245374;61;20433;-60
2021/10/20 09:56:39;0.00;0.00;0.62;0.00;0.00;0.62;3.40;3.10;;;24.60;32.40;;;;;;2245456;61;20449;-61
2021/10/20 09:59:25;0.00;0.00;0.62;0.00;0.00;0.62;4.73;3.40;;;24.70;32.50;;;;;;2245604;61;20401;-60
2021/10/20 10:02:11;0.00;0.00;0.62;0.00;0.00;0.62;3.23;2.80;;;24.70;32.50;;;;;;2245731;61;20405;-60
2021/10/20 10:04:56;0.00;0.00;0.62;0.00;0.00;0.62;3.53;3.23;;;24.70;32.40;;;;;;2245252;61;20644;-60
2021/10/20 10:07:41;0.00;0.00;0.62;0.00;0.00;0.62;5.73;3.27;;;24.80;32.50;;;;;;2245001;61;20368;-61
2021/10/20 10:10:26;0.00;0.00;0.62;0.00;0.00;0.62;2.97;2.77;;;24.80;32.50;;;;;;2245549;61;20435;-61
2021/10/20 10:13:19;0.00;0.00;0.62;0.00;0.00;0.62;3.30;3.00;;;24.90;32.50;;;;;;2245944;61;20425;-59
2021/10/20 10:16:05;0.00;0.00;0.62;0.00;0.00;0.62;2.87;2.37;;;24.90;32.40;;;;;;2245966;61;20448;-61
2021/10/20 10:18:55;0.00;0.00;0.62;0.00;0.00;0.62;3.40;2.77;;;24.90;32.30;;;;;;2245988;61;20506;-60
2021/10/20 10:21:42;0.00;0.00;0.62;0.00;0.00;0.62;2.90;2.47;;;25.00;32.40;;;;;;2246173;61;20365;-60
2021/10/20 10:24:35;0.00;0.00;0.62;0.00;0.00;0.62;3.03;2.60;;;25.00;32.30;;;;;;2246533;61;20464;-59
2021/10/20 10:27:20;0.00;0.00;0.62;0.00;0.00;0.62;3.40;2.90;;;25.00;32.30;;;;;;2245816;61;20354;-60
2021/10/20 10:30:18;0.00;0.00;0.62;0.00;0.00;0.62;3.07;2.63;;;25.00;32.20;;;;;;2245966;61;20397;-61
2021/10/20 10:33:03;0.00;0.00;0.62;0.00;0.00;0.62;3.10;2.80;;;25.00;32.10;;;;;;2246234;61;20409;-60
2021/10/20 10:36:15;0.00;0.00;0.62;0.00;0.00;0.62;3.03;2.57;;;25.00;32.10;;;;;;2245897;61;20390;-59
2021/10/20 10:39:06;0.00;0.00;0.62;0.00;0.00;0.62;3.93;2.80;;;25.00;32.10;;;;;;2245154;61;20397;-60
2021/10/20 10:41:57;0.00;0.00;0.62;0.00;0.00;0.62;3.70;2.87;;;25.10;32.10;;;;;;2245677;61;20370;-61
2021/10/20 10:44:48;0.00;0.00;0.62;0.00;0.00;0.62;3.50;2.67;;;25.10;32.10;;;;;;2245962;61;20430;-59
2021/10/20 10:47:33;0.00;0.00;0.62;0.00;0.00;0.62;4.10;2.63;;;25.10;32.10;;;;;;2246096;61;20353;-60
2021/10/20 10:50:18;0.00;0.00;0.62;0.00;0.00;0.62;3.07;2.80;;;25.10;32.10;;;;;;2245910;61;20365;-58
2021/10/20 10:53:04;0.00;0.00;0.62;0.00;0.00;0.62;3.20;2.90;;;25.10;32.00;;;;;;2246030;61;20434;-58